Rosa, Alabama
Current Conditions -  °F | °C
As of 6:55 PM on Saturday 22 Nov 2014 (Local Time) from KGAD Reporting Station
Broken Clouds Broken Clouds  
Wind Chill: 61°   Ceiling: 4100
Heat Index: 61°   Visibility: 10mi
Dew Point: 39°   Wind: 8mph
Humidity: 45%   Direction: 110°ESE
Pressure: 30.19"   Gusts: NA
Location:  33.8959°N, 86.4894°W
Report Text: KGAD 230055Z 11007KT 10SM SCT034 BKN041 16/04 A3019 RMK AO1
Loading
Personal Weather Stations






























Interactive Weather Map New forecast layout! Learn more

10-Day Weather Forecast

Advertisements
Track Severe Weather on mobile